Time;durP1;ratioP1;P1;durP2;ratioP2;P2;SDS_P1;SDS_P2;PMS_P1;PMS_P2;Temp;Humidity;BMP_temperature;BMP_pressure;BME280_temperature;BME280_humidity;BME280_pressure;Samples;Min_cycle;Max_cycle;Signal;HPM_P1;HPM_P2
2022/01/01 00:01:52;;;;;;;67.50;22.58;;;11.10;91.30;;;;;;5096685;28;20053;-77
2022/01/01 00:04:19;;;;;;;59.58;21.90;;;11.10;91.30;;;;;;5103571;28;20064;-78
2022/01/01 00:06:46;;;;;;;67.88;23.17;;;11.10;91.30;;;;;;5106528;28;20072;-78
2022/01/01 00:09:13;;;;;;;68.68;24.65;;;11.10;91.30;;;;;;5103798;28;20063;-78
2022/01/01 00:11:39;;;;;;;64.70;25.38;;;11.10;91.30;;;;;;5104875;28;20059;-77
2022/01/01 00:14:06;;;;;;;65.65;27.20;;;11.10;91.30;;;;;;5105803;28;20057;-78
2022/01/01 00:16:37;;;;;;;72.75;30.05;;;11.10;91.30;;;;;;5089397;28;20025;-78
2022/01/01 00:19:04;;;;;;;77.57;30.55;;;11.10;91.50;;;;;;5103667;28;20033;-77
2022/01/01 00:21:32;;;;;;;89.38;31.15;;;11.10;91.40;;;;;;5105266;28;20064;-77
2022/01/01 00:23:59;;;;;;;78.35;31.27;;;11.10;91.30;;;;;;5095513;28;20113;-77
2022/01/01 00:26:26;;;;;;;83.95;31.73;;;11.10;91.20;;;;;;5108959;28;20044;-77
2022/01/01 00:28:52;;;;;;;79.30;32.80;;;11.10;91.30;;;;;;5091116;28;20052;-77
2022/01/01 00:31:19;;;;;;;84.95;31.48;;;11.10;91.40;;;;;;5102949;28;20088;-77
2022/01/01 00:33:46;;;;;;;79.10;31.40;;;11.10;91.30;;;;;;5104391;28;20063;-78
2022/01/01 00:36:12;;;;;;;78.22;30.80;;;11.10;91.10;;;;;;5110079;27;20035;-78
2022/01/01 00:38:39;;;;;;;79.85;32.70;;;11.10;91.20;;;;;;5094668;28;20040;-78
2022/01/01 00:41:09;;;;;;;76.55;31.17;;;11.10;91.10;;;;;;5098226;28;20025;-78
2022/01/01 00:43:35;;;;;;;75.28;29.55;;;11.10;91.30;;;;;;5113012;28;20072;-77
2022/01/01 00:46:02;;;;;;;71.70;31.27;;;11.10;91.30;;;;;;5103191;28;20343;-78
2022/01/01 00:48:31;;;;;;;94.95;36.10;;;11.10;91.40;;;;;;5104612;28;20052;-78
2022/01/01 00:51:18;;;;;;;90.18;40.25;;;11.10;91.40;;;;;;5102711;28;20089;-78
2022/01/01 00:53:44;;;;;;;98.78;43.33;;;11.10;91.30;;;;;;5099445;28;20215;-78
2022/01/01 00:56:13;;;;;;;93.63;43.25;;;11.10;91.30;;;;;;5104810;28;20088;-77
2022/01/01 00:58:40;;;;;;;102.05;46.83;;;11.10;91.30;;;;;;5086797;28;20115;-78
2022/01/01 01:01:10;;;;;;;109.50;49.08;;;11.10;91.20;;;;;;5095427;28;20067;-78
2022/01/01 01:03:40;;;;;;;107.55;50.65;;;11.10;91.30;;;;;;5106666;28;20029;-77
2022/01/01 01:06:13;;;;;;;105.38;51.15;;;11.10;91.40;;;;;;5107418;28;20350;-77
2022/01/01 01:08:41;;;;;;;107.32;47.22;;;11.10;91.40;;;;;;5093698;28;20024;-77
2022/01/01 01:11:08;;;;;;;86.88;41.55;;;11.10;91.30;;;;;;5106359;28;20072;-78
2022/01/01 01:13:38;;;;;;;96.00;41.78;;;11.10;91.20;;;;;;5108051;28;20033;-77
2022/01/01 01:16:05;;;;;;;81.75;37.55;;;11.00;91.20;;;;;;5101962;28;20100;-77
2022/01/01 01:18:34;;;;;;;86.13;35.72;;;11.00;91.00;;;;;;5098812;28;20186;-77
2022/01/01 01:21:01;;;;;;;81.72;35.55;;;11.00;91.20;;;;;;5094696;28;20224;-78
2022/01/01 01:23:28;;;;;;;87.47;36.17;;;11.00;91.10;;;;;;5098537;28;20045;-78
2022/01/01 01:25:56;;;;;;;82.40;35.92;;;11.00;91.20;;;;;;5096951;28;20159;-78
2022/01/01 01:28:23;;;;;;;79.30;36.97;;;11.00;91.30;;;;;;5106798;28;20029;-77
2022/01/01 01:30:50;;;;;;;92.10;38.40;;;11.00;91.40;;;;;;5090385;28;20132;-77
2022/01/01 01:33:17;;;;;;;86.85;38.33;;;10.90;91.40;;;;;;5096874;28;20071;-77
2022/01/01 01:35:43;;;;;;;92.15;38.47;;;11.00;91.30;;;;;;5095343;28;20045;-77
2022/01/01 01:38:10;;;;;;;87.82;37.63;;;10.90;91.50;;;;;;5103177;28;20068;-77
2022/01/01 01:40:40;;;;;;;91.55;36.78;;;10.90;91.60;;;;;;5099881;28;20021;-78
2022/01/01 01:43:11;;;;;;;83.80;34.08;;;10.90;91.70;;;;;;5085532;28;20101;-78
2022/01/01 01:45:38;;;;;;;78.75;34.50;;;10.90;91.60;;;;;;5095497;28;20239;-77
2022/01/01 01:48:10;;;;;;;84.25;33.53;;;11.00;91.60;;;;;;5108066;28;20053;-77
2022/01/01 01:50:40;;;;;;;78.57;32.10;;;11.00;91.50;;;;;;5102706;28;20029;-78
2022/01/01 01:53:08;;;;;;;75.75;28.85;;;11.00;91.60;;;;;;5104323;28;20049;-77
2022/01/01 01:55:34;;;;;;;79.38;27.83;;;11.00;91.60;;;;;;5099634;28;20081;-77
2022/01/01 01:58:04;;;;;;;65.72;26.67;;;11.00;91.60;;;;;;5106143;28;20108;-77
2022/01/01 02:03:19;;;;;;;72.25;25.42;;;11.00;91.60;;;;;;5104661;28;20051;-77
2022/01/01 02:05:47;;;;;;;67.68;24.33;;;11.00;91.70;;;;;;5096607;28;20028;-77
2022/01/01 02:08:16;;;;;;;68.28;22.17;;;11.10;91.70;;;;;;5100276;28;21307;-78
2022/01/01 02:10:43;;;;;;;53.08;21.27;;;11.10;91.80;;;;;;5103189;28;20092;-77
2022/01/01 02:13:17;;;;;;;61.78;19.95;;;11.10;91.80;;;;;;5102066;28;20037;-77
2022/01/01 02:18:20;;;;;;;53.00;19.13;;;11.20;91.90;;;;;;5103229;28;20032;-76
2022/01/01 02:20:50;;;;;;;69.85;19.05;;;11.20;92.10;;;;;;5105968;28;20048;-77
2022/01/01 02:23:26;;;;;;;57.53;17.85;;;11.20;92.10;;;;;;5098964;28;20068;-77
2022/01/01 02:25:56;;;;;;;58.17;18.85;;;11.20;92.00;;;;;;5098618;28;20078;-77
2022/01/01 02:28:25;;;;;;;64.38;19.65;;;11.20;92.10;;;;;;5104807;28;20088;-77
2022/01/01 02:30:52;;;;;;;53.83;18.77;;;11.30;92.00;;;;;;5099216;28;20045;-76
2022/01/01 02:33:19;;;;;;;54.90;17.90;;;11.30;92.00;;;;;;5109018;28;20071;-77
2022/01/01 02:35:46;;;;;;;59.88;18.77;;;11.30;92.00;;;;;;5096872;28;20077;-77
2022/01/01 02:38:15;;;;;;;53.33;18.42;;;11.30;92.00;;;;;;5106087;28;20076;-77
2022/01/01 02:40:43;;;;;;;58.88;17.58;;;11.30;92.00;;;;;;5092782;28;20027;-77
2022/01/01 02:43:12;;;;;;;52.72;16.98;;;11.30;92.00;;;;;;5105175;28;20041;-77
2022/01/01 02:45:39;;;;;;;51.53;16.25;;;11.40;91.90;;;;;;5098870;28;20017;-77
2022/01/01 02:48:06;;;;;;;62.67;16.08;;;11.40;91.90;;;;;;5104356;28;20109;-77
2022/01/01 02:50:33;;;;;;;50.55;16.27;;;11.40;91.80;;;;;;5104024;28;20063;-76
2022/01/01 02:53:00;;;;;;;53.95;15.88;;;11.40;91.90;;;;;;5098101;28;20096;-77
2022/01/01 02:55:26;;;;;;;51.70;17.25;;;11.50;91.80;;;;;;5095107;28;20035;-77
2022/01/01 02:57:53;;;;;;;57.92;17.25;;;11.50;91.80;;;;;;5105185;28;20037;-77
2022/01/01 03:00:21;;;;;;;61.50;17.13;;;11.50;91.70;;;;;;5102421;28;20029;-76
2022/01/01 03:02:48;;;;;;;55.22;18.95;;;11.50;91.70;;;;;;5102526;28;20101;-77
2022/01/01 03:05:15;;;;;;;57.58;19.77;;;11.50;91.80;;;;;;5099453;28;20614;-76
2022/01/01 03:07:41;;;;;;;63.40;20.77;;;11.50;91.70;;;;;;5097486;28;20071;-76
2022/01/01 03:10:08;;;;;;;71.20;20.10;;;11.60;91.80;;;;;;5097143;28;20025;-77
2022/01/01 03:12:35;;;;;;;54.78;20.17;;;11.50;91.70;;;;;;5103308;28;20092;-77
2022/01/01 03:15:02;;;;;;;62.67;20.75;;;11.50;91.70;;;;;;5101730;28;20036;-76
2022/01/01 03:17:29;;;;;;;53.78;20.50;;;11.50;92.00;;;;;;5103992;28;20064;-77
2022/01/01 03:19:55;;;;;;;55.05;20.33;;;11.50;91.90;;;;;;5105802;28;20056;-77
2022/01/01 03:22:22;;;;;;;61.78;21.23;;;11.50;91.90;;;;;;5104287;28;22079;-77
2022/01/01 03:24:49;;;;;;;55.03;18.73;;;11.50;91.80;;;;;;5097949;28;20036;-77
2022/01/01 03:27:15;;;;;;;72.88;21.90;;;11.50;91.90;;;;;;5098456;28;20048;-77
2022/01/01 03:29:42;;;;;;;67.05;21.50;;;11.50;91.80;;;;;;5101691;28;20032;-77
2022/01/01 03:32:09;;;;;;;56.80;21.40;;;11.50;92.00;;;;;;5104186;28;20105;-77
2022/01/01 03:34:35;;;;;;;55.25;21.70;;;11.50;91.90;;;;;;5107522;27;20083;-77
2022/01/01 03:37:03;;;;;;;62.85;21.23;;;11.50;92.00;;;;;;5103062;28;20046;-77
2022/01/01 03:39:29;;;;;;;66.45;21.70;;;11.50;91.90;;;;;;5102593;28;20101;-77
2022/01/01 03:41:56;;;;;;;54.17;20.83;;;11.50;92.00;;;;;;5099433;28;20523;-76
2022/01/01 03:44:23;;;;;;;58.25;21.45;;;11.50;91.90;;;;;;5102998;28;20085;-76
2022/01/01 03:46:53;;;;;;;57.08;21.10;;;11.50;91.90;;;;;;5103062;28;20056;-76
2022/01/01 03:49:20;;;;;;;55.28;21.08;;;11.50;91.80;;;;;;5102689;28;20101;-76
2022/01/01 03:51:47;;;;;;;58.28;21.10;;;11.50;91.90;;;;;;5101890;28;20071;-76
2022/01/01 03:54:14;;;;;;;56.25;20.90;;;11.50;91.80;;;;;;5098962;28;20025;-76
2022/01/01 03:56:41;;;;;;;57.13;20.17;;;11.50;92.00;;;;;;5098699;28;20102;-76
2022/01/01 03:59:08;;;;;;;62.78;22.02;;;11.50;91.90;;;;;;5097856;28;20052;-77
2022/01/01 04:01:34;;;;;;;66.18;22.38;;;11.50;92.00;;;;;;5094254;28;20113;-76
2022/01/01 04:04:01;;;;;;;58.15;21.10;;;11.50;92.10;;;;;;5105978;28;20024;-76
2022/01/01 04:06:28;;;;;;;58.88;24.58;;;11.50;92.30;;;;;;5100117;28;20095;-76
2022/01/01 04:08:55;;;;;;;67.03;23.48;;;11.50;92.20;;;;;;5096220;28;20029;-76
2022/01/01 04:11:22;;;;;;;65.75;24.42;;;11.50;92.10;;;;;;5089992;28;20029;-76
2022/01/01 04:13:49;;;;;;;68.95;24.52;;;11.50;92.10;;;;;;5098523;28;20049;-76
2022/01/01 04:16:17;;;;;;;67.07;25.58;;;11.50;92.10;;;;;;5102449;28;20041;-76
2022/01/01 04:18:45;;;;;;;78.22;26.67;;;11.40;92.20;;;;;;5101699;28;20036;-76
2022/01/01 04:21:13;;;;;;;70.97;26.02;;;11.50;92.40;;;;;;5097120;28;20056;-76
2022/01/01 04:23:41;;;;;;;74.45;26.45;;;11.50;92.20;;;;;;5100348;28;20033;-76
2022/01/01 04:26:08;;;;;;;67.72;24.80;;;11.50;92.10;;;;;;5098905;28;20033;-76
2022/01/01 04:28:36;;;;;;;59.22;24.55;;;11.40;92.30;;;;;;5099994;28;20033;-76
2022/01/01 04:31:06;;;;;;;65.03;23.50;;;11.50;92.30;;;;;;5091029;28;20072;-76
2022/01/01 04:33:33;;;;;;;66.03;24.38;;;11.50;92.30;;;;;;5118762;27;20037;-76
2022/01/01 04:36:03;;;;;;;57.67;24.63;;;11.50;92.20;;;;;;5099407;28;20055;-76
2022/01/01 04:38:37;;;;;;;62.33;24.70;;;11.50;92.30;;;;;;5109654;28;20060;-76
2022/01/01 04:41:05;;;;;;;55.03;23.17;;;11.50;92.30;;;;;;5095353;28;20034;-76
2022/01/01 04:43:32;;;;;;;67.03;24.25;;;11.50;92.40;;;;;;5108454;28;20071;-76
2022/01/01 04:45:59;;;;;;;53.10;21.67;;;11.50;92.30;;;;;;5101654;28;20041;-76
2022/01/01 04:48:25;;;;;;;54.67;21.27;;;11.50;92.30;;;;;;5106500;28;20024;-77
2022/01/01 04:50:52;;;;;;;57.58;22.08;;;11.50;92.30;;;;;;5098709;28;20044;-76
2022/01/01 04:53:19;;;;;;;61.40;23.13;;;11.50;92.10;;;;;;5100052;28;20036;-78
2022/01/01 04:55:49;;;;;;;60.90;22.63;;;11.50;92.30;;;;;;5100277;28;20025;-76
2022/01/01 04:58:16;;;;;;;51.95;21.38;;;11.50;92.50;;;;;;5104638;28;20155;-76
2022/01/01 05:00:43;;;;;;;47.78;19.30;;;11.50;92.30;;;;;;5100104;28;20093;-77
2022/01/01 05:03:09;;;;;;;50.15;19.70;;;11.50;92.20;;;;;;5102494;28;20032;-76
2022/01/01 05:05:36;;;;;;;46.75;18.67;;;11.50;92.00;;;;;;5100509;28;20028;-76
2022/01/01 05:08:06;;;;;;;49.20;18.23;;;11.40;91.90;;;;;;5103410;28;20067;-75
2022/01/01 05:10:35;;;;;;;48.30;19.13;;;11.30;91.80;;;;;;5095609;28;20040;-76
2022/01/01 05:13:01;;;;;;;48.92;18.23;;;11.30;91.90;;;;;;5116829;27;20040;-76
2022/01/01 05:15:28;;;;;;;39.10;17.75;;;11.20;91.90;;;;;;5098068;28;20029;-76
2022/01/01 05:17:55;;;;;;;51.72;19.33;;;11.10;92.40;;;;;;5088704;28;20068;-76
2022/01/01 05:20:22;;;;;;;57.05;19.95;;;11.10;92.70;;;;;;5098151;28;20043;-76
2022/01/01 05:22:51;;;;;;;45.05;17.63;;;11.10;92.70;;;;;;5100664;27;20036;-76
2022/01/01 05:25:17;;;;;;;46.33;18.02;;;11.20;92.70;;;;;;5101952;27;20028;-76
2022/01/01 05:27:44;;;;;;;43.92;18.80;;;11.20;93.00;;;;;;5104483;28;20041;-76
2022/01/01 05:30:14;;;;;;;47.92;18.17;;;11.20;93.00;;;;;;5099720;28;20084;-76
2022/01/01 05:32:41;;;;;;;42.92;17.02;;;11.10;93.10;;;;;;5105625;28;20052;-76
2022/01/01 05:35:10;;;;;;;49.80;17.17;;;11.20;93.10;;;;;;5101422;28;20043;-76
2022/01/01 05:37:39;;;;;;;42.95;17.92;;;11.20;93.00;;;;;;5103724;28;20089;-76
2022/01/01 05:40:06;;;;;;;46.28;19.38;;;11.20;93.00;;;;;;5099288;28;20093;-76
2022/01/01 05:42:33;;;;;;;52.03;16.73;;;11.20;93.10;;;;;;5095193;28;20029;-75
2022/01/01 05:44:59;;;;;;;38.00;16.30;;;11.20;93.10;;;;;;5095577;28;20164;-75
2022/01/01 05:47:27;;;;;;;44.08;16.13;;;11.20;93.00;;;;;;5099644;28;20036;-76
2022/01/01 05:49:53;;;;;;;40.92;16.00;;;11.20;92.80;;;;;;5101590;28;20097;-76
2022/01/01 05:52:20;;;;;;;40.30;15.50;;;11.20;92.70;;;;;;5098314;28;20057;-76
2022/01/01 05:54:47;;;;;;;42.20;16.98;;;11.10;92.70;;;;;;5095203;28;20052;-76
2022/01/01 05:57:13;;;;;;;35.42;16.25;;;11.10;92.60;;;;;;5101081;28;20096;-76
2022/01/01 05:59:41;;;;;;;44.72;15.98;;;11.10;92.70;;;;;;5104744;28;20108;-76
2022/01/01 06:02:09;;;;;;;43.60;16.77;;;11.10;92.70;;;;;;5100371;28;20099;-76
2022/01/01 06:04:36;;;;;;;41.80;15.02;;;11.10;92.90;;;;;;5091296;28;20060;-76
2022/01/01 06:07:03;;;;;;;36.80;15.35;;;11.10;92.90;;;;;;5106596;27;20053;-76
2022/01/01 06:09:33;;;;;;;36.13;14.60;;;11.00;92.60;;;;;;5098321;28;20071;-76
2022/01/01 06:12:00;;;;;;;43.45;14.93;;;11.00;92.40;;;;;;5085029;28;20064;-75
2022/01/01 06:14:26;;;;;;;35.85;14.02;;;10.90;93.00;;;;;;5094795;28;20125;-76
2022/01/01 06:16:54;;;;;;;40.13;14.80;;;10.80;92.70;;;;;;5099719;28;20037;-76
2022/01/01 06:19:20;;;;;;;37.30;16.02;;;10.80;92.90;;;;;;5098700;28;20056;-77
2022/01/01 06:21:47;;;;;;;37.58;14.85;;;10.70;92.80;;;;;;5095799;28;20425;-75
2022/01/01 06:24:14;;;;;;;33.53;14.18;;;10.60;92.60;;;;;;5103046;28;20037;-76
2022/01/01 06:26:41;;;;;;;39.38;13.18;;;10.50;92.70;;;;;;5107373;28;20112;-76
2022/01/01 06:29:08;;;;;;;33.28;13.60;;;10.40;92.50;;;;;;5098831;28;20052;-75
2022/01/01 06:31:34;;;;;;;36.97;13.88;;;10.40;92.40;;;;;;5086194;28;20081;-77
2022/01/01 06:34:02;;;;;;;30.85;14.15;;;10.30;92.30;;;;;;5113591;28;20033;-78
2022/01/01 06:36:29;;;;;;;34.70;14.60;;;10.20;92.50;;;;;;5104992;28;20075;-78
2022/01/01 06:38:55;;;;;;;42.42;15.57;;;10.20;93.50;;;;;;5107777;28;20059;-78
2022/01/01 06:41:24;;;;;;;36.72;14.35;;;10.10;93.30;;;;;;5085055;28;20025;-77
2022/01/01 06:43:52;;;;;;;37.85;16.38;;;10.10;93.30;;;;;;5105163;28;20047;-78
2022/01/01 06:46:19;;;;;;;38.70;15.60;;;10.10;93.30;;;;;;5106647;28;20130;-78
2022/01/01 06:48:45;;;;;;;46.85;15.70;;;10.10;93.70;;;;;;5102334;28;20100;-76
2022/01/01 06:51:12;;;;;;;45.20;15.52;;;10.10;93.60;;;;;;5104361;28;20080;-75
2022/01/01 06:53:39;;;;;;;44.53;14.93;;;10.10;93.80;;;;;;5109574;28;20033;-76
2022/01/01 06:56:06;;;;;;;38.40;14.82;;;10.10;93.60;;;;;;5103840;28;20045;-75
2022/01/01 06:58:37;;;;;;;37.28;15.15;;;10.20;94.30;;;;;;5084861;28;20541;-75
2022/01/01 07:01:04;;;;;;;36.05;14.40;;;10.20;94.00;;;;;;5102434;28;20059;-76
2022/01/01 07:03:32;;;;;;;37.42;14.57;;;10.30;94.50;;;;;;5101745;28;20045;-76
2022/01/01 07:05:58;;;;;;;38.25;14.07;;;10.40;94.80;;;;;;5103656;28;20064;-75
2022/01/01 07:08:25;;;;;;;33.15;13.45;;;10.50;94.80;;;;;;5104188;28;20108;-75
2022/01/01 07:10:52;;;;;;;31.33;12.75;;;10.60;94.50;;;;;;5105844;28;20033;-76
2022/01/01 07:13:18;;;;;;;35.20;12.73;;;10.60;94.30;;;;;;5105869;28;20101;-77
2022/01/01 07:15:45;;;;;;;30.30;12.32;;;10.60;93.90;;;;;;5104251;28;20051;-77
2022/01/01 07:18:12;;;;;;;30.48;12.73;;;10.50;93.80;;;;;;5103202;28;20096;-76
2022/01/01 07:20:38;;;;;;;28.02;11.40;;;10.60;93.80;;;;;;5104621;28;20041;-75
2022/01/01 07:23:05;;;;;;;30.40;11.25;;;10.60;93.90;;;;;;5104252;28;20525;-76
2022/01/01 07:25:32;;;;;;;31.42;10.95;;;10.70;93.60;;;;;;5083011;28;20033;-75
2022/01/01 07:27:58;;;;;;;29.17;10.38;;;10.70;93.40;;;;;;5104433;28;20029;-76
2022/01/01 07:30:25;;;;;;;22.90;9.52;;;10.60;93.40;;;;;;5105586;28;20056;-76
2022/01/01 07:32:52;;;;;;;30.45;10.00;;;10.70;93.50;;;;;;5101536;28;20021;-76
2022/01/01 07:35:20;;;;;;;30.88;9.57;;;10.70;93.20;;;;;;5103725;28;20143;-77
2022/01/01 07:37:49;;;;;;;22.88;8.70;;;10.80;93.00;;;;;;5094802;28;20033;-78
2022/01/01 07:40:17;;;;;;;23.65;8.88;;;10.80;92.90;;;;;;5102646;28;20096;-76
2022/01/01 07:42:44;;;;;;;21.40;8.70;;;10.80;92.80;;;;;;5099396;28;20033;-78
2022/01/01 07:45:17;;;;;;;24.25;8.80;;;10.80;92.70;;;;;;5099683;28;20033;-76
2022/01/01 07:47:44;;;;;;;19.73;8.15;;;10.80;92.70;;;;;;5109672;28;20032;-78
2022/01/01 07:50:10;;;;;;;20.95;8.15;;;10.80;92.60;;;;;;5104091;28;20032;-77
2022/01/01 07:52:37;;;;;;;20.95;7.97;;;10.90;92.40;;;;;;5104565;28;20055;-75
2022/01/01 07:55:05;;;;;;;23.83;7.63;;;10.90;92.30;;;;;;5101244;28;20060;-76
2022/01/01 07:57:31;;;;;;;19.42;6.53;;;10.90;92.20;;;;;;5092760;28;20059;-76
2022/01/01 07:59:58;;;;;;;24.38;7.05;;;10.90;92.30;;;;;;5100440;28;20053;-76
2022/01/01 08:02:25;;;;;;;28.58;7.78;;;10.90;92.20;;;;;;5106258;28;20041;-76
2022/01/01 08:04:52;;;;;;;18.65;6.90;;;10.90;92.10;;;;;;5111578;28;20059;-76
2022/01/01 08:07:19;;;;;;;22.45;6.70;;;11.00;92.00;;;;;;5101363;28;20057;-76
2022/01/01 08:10:09;;;;;;;20.83;7.18;;;11.00;91.80;;;;;;5089611;28;20049;-76
2022/01/01 08:12:36;;;;;;;22.40;6.47;;;11.00;91.60;;;;;;5100770;28;20040;-77
2022/01/01 08:15:04;;;;;;;21.35;6.55;;;11.00;91.50;;;;;;5096987;28;20029;-76
2022/01/01 08:17:31;;;;;;;21.00;5.90;;;11.10;91.50;;;;;;5100737;28;20075;-77
2022/01/01 08:19:58;;;;;;;22.23;5.57;;;11.10;91.40;;;;;;5106601;28;20097;-76
2022/01/01 08:22:25;;;;;;;18.67;5.78;;;11.20;91.00;;;;;;5098474;28;20080;-77
2022/01/01 08:24:52;;;;;;;20.83;6.07;;;11.20;91.00;;;;;;5102272;28;20528;-77
2022/01/01 08:27:18;;;;;;;17.50;5.47;;;11.20;90.50;;;;;;5096706;28;20045;-77
2022/01/01 08:29:45;;;;;;;18.35;5.68;;;11.30;90.50;;;;;;5099690;28;20093;-76
2022/01/01 08:32:12;;;;;;;20.23;5.75;;;11.30;90.70;;;;;;5094491;28;20043;-78
2022/01/01 08:34:38;;;;;;;18.60;5.65;;;11.40;90.20;;;;;;5102960;28;20036;-77
2022/01/01 08:37:05;;;;;;;17.48;5.28;;;11.30;90.50;;;;;;5105216;28;22027;-77
2022/01/01 08:39:34;;;;;;;14.20;5.28;;;11.40;90.30;;;;;;5099344;28;20029;-77
2022/01/01 08:42:02;;;;;;;17.25;5.78;;;11.40;90.30;;;;;;5103492;28;20064;-77
2022/01/01 08:44:29;;;;;;;20.15;5.25;;;11.50;90.00;;;;;;5108399;28;20144;-77
2022/01/01 08:46:57;;;;;;;17.17;5.28;;;11.50;89.80;;;;;;5100045;28;21235;-77
2022/01/01 08:49:25;;;;;;;16.80;4.72;;;11.50;89.10;;;;;;5109439;27;20059;-77
2022/01/01 08:51:55;;;;;;;11.48;4.60;;;11.50;89.40;;;;;;5105623;28;20048;-77
2022/01/01 08:54:22;;;;;;;15.73;5.00;;;11.60;88.80;;;;;;5102386;28;20065;-77
2022/01/01 08:56:49;;;;;;;19.02;5.10;;;11.60;88.90;;;;;;5105836;28;20047;-77
2022/01/01 08:59:16;;;;;;;14.93;5.32;;;11.70;88.50;;;;;;5098598;28;20104;-77
2022/01/01 09:01:43;;;;;;;12.65;4.55;;;11.70;88.90;;;;;;5102523;28;20101;-77
2022/01/01 09:04:10;;;;;;;18.60;5.95;;;11.70;88.80;;;;;;5106979;28;20044;-76
2022/01/01 09:06:38;;;;;;;18.60;5.68;;;11.70;88.70;;;;;;5108103;27;21294;-77
2022/01/01 09:09:04;;;;;;;18.80;5.53;;;11.70;88.60;;;;;;5107920;28;20081;-77
2022/01/01 09:11:31;;;;;;;16.92;5.15;;;11.70;88.30;;;;;;5104186;28;20100;-77
2022/01/01 09:13:58;;;;;;;14.10;5.45;;;11.80;88.70;;;;;;5101346;28;20044;-77
2022/01/01 09:16:29;;;;;;;15.38;5.40;;;11.80;88.60;;;;;;5097362;28;20041;-77
2022/01/01 09:19:03;;;;;;;17.15;5.55;;;11.80;88.30;;;;;;5102208;28;20029;-77
2022/01/01 09:21:30;;;;;;;14.30;5.65;;;11.80;88.50;;;;;;5110222;28;20035;-77
2022/01/01 09:23:57;;;;;;;13.20;4.82;;;11.80;88.00;;;;;;5106719;28;20025;-77
2022/01/01 09:26:24;;;;;;;16.65;5.97;;;11.80;87.60;;;;;;5096434;28;20041;-77
2022/01/01 09:28:50;;;;;;;16.30;5.53;;;11.90;87.50;;;;;;5110261;28;20040;-77
2022/01/01 09:31:17;;;;;;;18.45;5.05;;;11.90;88.10;;;;;;5099574;28;20105;-76
2022/01/01 09:33:44;;;;;;;16.60;5.60;;;11.90;87.60;;;;;;5101555;28;20041;-77
2022/01/01 09:36:15;;;;;;;15.77;5.18;;;11.90;88.00;;;;;;5100733;28;20097;-77
2022/01/01 09:38:42;;;;;;;16.05;5.38;;;11.90;88.00;;;;;;5086049;28;20058;-77
2022/01/01 09:41:13;;;;;;;18.63;6.07;;;11.90;87.70;;;;;;5096058;28;20056;-77
2022/01/01 09:43:44;;;;;;;20.17;6.30;;;11.90;87.30;;;;;;5100992;28;20037;-77
2022/01/01 09:46:15;;;;;;;13.25;5.97;;;12.00;87.60;;;;;;5099018;28;20067;-77
2022/01/01 09:48:53;;;;;;;17.52;6.05;;;12.00;87.20;;;;;;5101847;28;20032;-78
2022/01/01 09:51:20;;;;;;;12.93;5.68;;;12.00;87.30;;;;;;5098476;28;20090;-78
2022/01/01 09:53:47;;;;;;;12.07;5.10;;;12.00;87.00;;;;;;5116490;27;20059;-77
2022/01/01 09:56:14;;;;;;;18.20;6.13;;;12.00;86.80;;;;;;5104150;28;20104;-77
2022/01/01 09:58:41;;;;;;;14.52;5.57;;;12.00;87.10;;;;;;5099365;28;20033;-78
2022/01/01 10:01:09;;;;;;;19.33;5.72;;;12.00;87.30;;;;;;5103307;27;20028;-78
2022/01/01 10:03:44;;;;;;;16.25;5.72;;;12.00;86.70;;;;;;5098933;28;20052;-77
2022/01/01 10:06:23;;;;;;;15.20;5.73;;;12.00;86.80;;;;;;5107205;28;20096;-78
2022/01/01 10:08:59;;;;;;;15.10;5.53;;;12.10;86.80;;;;;;5102996;28;20235;-77
2022/01/01 10:11:27;;;;;;;17.00;5.68;;;12.10;87.00;;;;;;5094053;28;20079;-78
2022/01/01 10:13:54;;;;;;;16.38;6.70;;;12.20;86.60;;;;;;5100980;28;20033;-77
2022/01/01 10:16:21;;;;;;;14.05;5.70;;;12.30;86.00;;;;;;5098078;28;20056;-76
2022/01/01 10:18:52;;;;;;;15.82;5.90;;;12.30;86.00;;;;;;5092069;28;20055;-77
2022/01/01 10:21:26;;;;;;;16.80;5.47;;;12.30;85.80;;;;;;5107554;28;20072;-77
2022/01/01 10:23:56;;;;;;;15.77;6.32;;;12.40;86.10;;;;;;5104098;28;20052;-77
2022/01/01 10:29:17;;;;;;;12.27;6.55;;;12.50;85.20;;;;;;5098574;28;20457;-78
2022/01/01 10:32:07;;;;;;;11.95;5.88;;;12.60;86.00;;;;;;5097544;28;20037;-77
2022/01/01 10:34:45;;;;;;;14.82;6.65;;;12.60;84.90;;;;;;5097631;28;20041;-77
2022/01/01 10:37:32;;;;;;;15.20;6.10;;;12.60;85.00;;;;;;5105846;28;20052;-77
2022/01/01 10:39:59;;;;;;;21.88;7.30;;;12.60;85.40;;;;;;5092294;28;20059;-77
2022/01/01 10:42:27;;;;;;;13.60;6.13;;;12.60;85.60;;;;;;5088700;28;20033;-78
2022/01/01 10:44:54;;;;;;;19.02;7.18;;;12.60;85.20;;;;;;5107509;28;20062;-76
2022/01/01 10:47:28;;;;;;;14.70;6.50;;;12.70;85.20;;;;;;5108395;28;20128;-77
2022/01/01 10:52:45;;;;;;;14.63;6.80;;;12.70;85.10;;;;;;5095874;28;20048;-76
2022/01/01 10:55:14;;;;;;;16.98;7.32;;;12.70;84.90;;;;;;5105055;28;20819;-77
2022/01/01 10:57:43;;;;;;;16.63;7.38;;;12.60;84.90;;;;;;5104082;28;20048;-77
2022/01/01 11:00:14;;;;;;;16.20;7.00;;;12.60;85.10;;;;;;5110104;27;20092;-77
2022/01/01 11:02:43;;;;;;;19.63;7.85;;;12.60;85.90;;;;;;5106735;28;20049;-77
2022/01/01 11:05:11;;;;;;;15.10;6.68;;;12.50;85.20;;;;;;5098590;28;20103;-78
2022/01/01 11:07:48;;;;;;;13.07;7.15;;;12.60;85.90;;;;;;5106059;28;20096;-77
2022/01/01 11:10:15;;;;;;;15.32;6.97;;;12.60;85.90;;;;;;5102141;28;20100;-77
2022/01/01 11:12:43;;;;;;;15.43;7.80;;;12.60;85.70;;;;;;5097166;28;20041;-78
2022/01/01 11:15:12;;;;;;;16.42;7.70;;;12.70;85.80;;;;;;5106724;28;20052;-77
2022/01/01 11:17:40;;;;;;;20.42;7.50;;;12.80;85.50;;;;;;5103235;28;20041;-77
2022/01/01 11:20:07;;;;;;;15.70;7.20;;;12.90;84.10;;;;;;5104393;28;20092;-77
2022/01/01 11:22:34;;;;;;;14.23;7.05;;;13.10;84.70;;;;;;5104470;28;20108;-77
2022/01/01 11:25:01;;;;;;;14.32;7.15;;;13.30;84.90;;;;;;5091487;28;20065;-78
2022/01/01 11:27:28;;;;;;;15.93;7.40;;;13.50;82.70;;;;;;5081019;28;20041;-79
2022/01/01 11:29:56;;;;;;;19.55;8.13;;;13.50;82.90;;;;;;5099478;28;20085;-79
2022/01/01 11:32:33;;;;;;;16.33;7.53;;;13.70;84.00;;;;;;5104746;28;20044;-78
2022/01/01 11:35:01;;;;;;;14.82;7.40;;;13.80;82.60;;;;;;5105789;28;21173;-79
2022/01/01 11:37:53;;;;;;;20.95;7.55;;;13.80;82.80;;;;;;5109288;28;20104;-78
2022/01/01 11:40:20;;;;;;;17.75;7.53;;;13.70;82.20;;;;;;5101117;28;20105;-79
2022/01/01 11:42:48;;;;;;;18.95;7.75;;;13.60;82.10;;;;;;5103736;28;20037;-79
2022/01/01 11:45:47;;;;;;;18.02;7.55;;;13.60;82.40;;;;;;5100934;28;20036;-78
2022/01/01 11:48:26;;;;;;;16.10;6.82;;;13.50;82.90;;;;;;5099392;28;20064;-78
2022/01/01 11:50:53;;;;;;;12.15;6.55;;;13.50;82.40;;;;;;5106930;28;20093;-79
2022/01/01 11:53:32;;;;;;;13.07;6.57;;;13.50;83.50;;;;;;5096510;28;20132;-79
2022/01/01 11:56:27;;;;;;;14.45;6.55;;;13.50;83.40;;;;;;5095802;28;20044;-79
2022/01/01 11:58:53;;;;;;;14.20;6.35;;;13.40;82.40;;;;;;5088551;28;20037;-78
2022/01/01 12:01:22;;;;;;;16.65;7.03;;;13.50;83.20;;;;;;5103262;28;20035;-79
2022/01/01 12:03:53;;;;;;;12.80;6.75;;;13.50;83.30;;;;;;5101648;28;20041;-79
2022/01/01 12:06:23;;;;;;;19.02;7.28;;;13.40;83.60;;;;;;5107239;27;20024;-79
2022/01/01 12:08:51;;;;;;;15.40;6.97;;;13.40;83.40;;;;;;5096190;28;20060;-78
2022/01/01 12:11:32;;;;;;;15.23;6.43;;;13.40;82.50;;;;;;5105626;28;20031;-79
2022/01/01 12:14:01;;;;;;;15.50;6.03;;;13.30;82.70;;;;;;5095686;28;20041;-78
2022/01/01 12:16:47;;;;;;;15.85;7.13;;;13.20;82.80;;;;;;5101428;28;20044;-78
2022/01/01 12:19:14;;;;;;;15.57;6.22;;;13.20;83.70;;;;;;5097947;28;20049;-79
2022/01/01 12:21:41;;;;;;;15.15;6.28;;;13.20;83.70;;;;;;5101911;28;20093;-79
2022/01/01 12:24:08;;;;;;;12.57;5.97;;;13.20;83.60;;;;;;5103175;28;20064;-79
2022/01/01 12:26:35;;;;;;;11.95;5.75;;;13.10;82.80;;;;;;5092397;28;20029;-79
2022/01/01 12:29:09;;;;;;;14.60;6.15;;;13.20;83.50;;;;;;5099840;28;20070;-79
2022/01/01 12:31:54;;;;;;;14.98;6.05;;;13.30;83.10;;;;;;5104002;28;20046;-79
2022/01/01 12:34:22;;;;;;;13.43;6.05;;;13.30;83.70;;;;;;5081968;28;20051;-79
2022/01/01 12:36:53;;;;;;;13.02;6.32;;;13.40;83.50;;;;;;5085136;28;20045;-79
2022/01/01 12:39:20;;;;;;;13.13;5.88;;;13.40;82.50;;;;;;5097614;28;20056;-79
2022/01/01 12:41:47;;;;;;;14.98;6.25;;;13.30;83.00;;;;;;5096635;28;20037;-78
2022/01/01 12:44:17;;;;;;;10.35;5.80;;;13.30;82.70;;;;;;5091325;28;20059;-79
2022/01/01 12:46:53;;;;;;;15.20;5.45;;;13.30;83.10;;;;;;5103667;28;20093;-79
2022/01/01 12:49:25;;;;;;;16.13;5.97;;;13.40;83.70;;;;;;5093569;28;20041;-78